Aviation Digital Data Service (ADDS)

Output produced by METARs form (0802 UTC 24 March 2018)
found at http://aviationweather.gov/adds/metars/
METAR text: KPVF 240755Z AUTO 13005KT 10SM BKN046 OVC050 04/02 A3010 RMK AO1
Conditions at: KPVF (PLACERVILLE , CA, US) observed 0755 UTC 24 March 2018
Temperature: 4.0°C (39°F)
Dewpoint: 2.0°C (36°F) [RH = 87%]
Pressure (altimeter): 30.10 inches Hg (1019.4 mb)
Winds: from the SE (130 degrees) at 6 MPH (5 knots; 2.6 m/s)
Visibility: 10 or more miles (16+ km)
Ceiling: 4600 feet AGL
Clouds: broken clouds at 4600 feet AGL
overcast cloud deck at 5000 feet AGL
Weather: automated observation with no human augmentation;
there may or may not be significant weather present at this time